sensor_id;sensor_type;location;lat;lon;timestamp;P1;durP1;ratioP1;P2;durP2;ratioP2
9906;SDS011;4992;51.628;6.664;2023-10-31T00:01:21;41.22;;;36.67;;
9906;SDS011;4992;51.628;6.664;2023-10-31T00:03:46;54.03;;;46.92;;
9906;SDS011;4992;51.628;6.664;2023-10-31T00:06:12;38.10;;;32.95;;
9906;SDS011;4992;51.628;6.664;2023-10-31T00:08:37;26.20;;;21.90;;
9906;SDS011;4992;51.628;6.664;2023-10-31T00:11:03;16.65;;;13.73;;
9906;SDS011;4992;51.628;6.664;2023-10-31T00:13:28;13.27;;;10.05;;
9906;SDS011;4992;51.628;6.664;2023-10-31T00:15:54;13.85;;;12.18;;
9906;SDS011;4992;51.628;6.664;2023-10-31T00:18:20;13.90;;;11.57;;
9906;SDS011;4992;51.628;6.664;2023-10-31T00:20:46;11.90;;;9.48;;
9906;SDS011;4992;51.628;6.664;2023-10-31T00:23:12;9.30;;;6.88;;
9906;SDS011;4992;51.628;6.664;2023-10-31T00:25:37;10.65;;;8.48;;
9906;SDS011;4992;51.628;6.664;2023-10-31T00:28:03;7.78;;;6.07;;
9906;SDS011;4992;51.628;6.664;2023-10-31T00:30:29;6.60;;;5.97;;
9906;SDS011;4992;51.628;6.664;2023-10-31T00:32:54;10.48;;;8.30;;
9906;SDS011;4992;51.628;6.664;2023-10-31T00:35:20;14.52;;;13.02;;
9906;SDS011;4992;51.628;6.664;2023-10-31T00:37:45;11.07;;;9.98;;
9906;SDS011;4992;51.628;6.664;2023-10-31T00:40:11;8.95;;;8.07;;
9906;SDS011;4992;51.628;6.664;2023-10-31T00:42:39;6.93;;;5.10;;
9906;SDS011;4992;51.628;6.664;2023-10-31T00:45:07;4.90;;;4.25;;
9906;SDS011;4992;51.628;6.664;2023-10-31T00:47:33;5.50;;;5.00;;
9906;SDS011;4992;51.628;6.664;2023-10-31T00:49:59;5.22;;;4.72;;
9906;SDS011;4992;51.628;6.664;2023-10-31T00:52:25;4.63;;;4.25;;
9906;SDS011;4992;51.628;6.664;2023-10-31T00:54:50;24.25;;;21.90;;
9906;SDS011;4992;51.628;6.664;2023-10-31T00:57:16;40.20;;;36.05;;
9906;SDS011;4992;51.628;6.664;2023-10-31T00:59:41;38.22;;;34.15;;
9906;SDS011;4992;51.628;6.664;2023-10-31T01:02:07;25.95;;;23.35;;
9906;SDS011;4992;51.628;6.664;2023-10-31T01:04:33;21.70;;;19.40;;
9906;SDS011;4992;51.628;6.664;2023-10-31T01:07:00;14.93;;;13.25;;
9906;SDS011;4992;51.628;6.664;2023-10-31T01:09:26;8.80;;;7.90;;
9906;SDS011;4992;51.628;6.664;2023-10-31T01:11:51;8.65;;;7.80;;
9906;SDS011;4992;51.628;6.664;2023-10-31T01:14:17;9.18;;;8.27;;
9906;SDS011;4992;51.628;6.664;2023-10-31T01:16:42;11.00;;;8.10;;
9906;SDS011;4992;51.628;6.664;2023-10-31T01:19:08;8.05;;;7.22;;
9906;SDS011;4992;51.628;6.664;2023-10-31T01:21:33;9.90;;;7.57;;
9906;SDS011;4992;51.628;6.664;2023-10-31T01:23:59;10.27;;;9.18;;
9906;SDS011;4992;51.628;6.664;2023-10-31T01:26:25;11.82;;;10.73;;
9906;SDS011;4992;51.628;6.664;2023-10-31T01:28:51;9.43;;;8.45;;
9906;SDS011;4992;51.628;6.664;2023-10-31T01:31:17;7.70;;;6.97;;
9906;SDS011;4992;51.628;6.664;2023-10-31T01:33:43;6.85;;;6.15;;
9906;SDS011;4992;51.628;6.664;2023-10-31T01:36:08;7.53;;;6.53;;
9906;SDS011;4992;51.628;6.664;2023-10-31T01:38:35;7.15;;;6.45;;
9906;SDS011;4992;51.628;6.664;2023-10-31T01:41:01;8.20;;;7.40;;
9906;SDS011;4992;51.628;6.664;2023-10-31T01:43:33;8.23;;;7.43;;
9906;SDS011;4992;51.628;6.664;2023-10-31T01:45:59;7.68;;;6.82;;
9906;SDS011;4992;51.628;6.664;2023-10-31T01:48:25;7.95;;;6.30;;
9906;SDS011;4992;51.628;6.664;2023-10-31T01:50:53;7.50;;;6.70;;
9906;SDS011;4992;51.628;6.664;2023-10-31T01:53:19;7.20;;;6.60;;
9906;SDS011;4992;51.628;6.664;2023-10-31T01:55:45;8.73;;;7.68;;
9906;SDS011;4992;51.628;6.664;2023-10-31T01:58:11;7.68;;;6.97;;
9906;SDS011;4992;51.628;6.664;2023-10-31T02:00:39;8.65;;;7.85;;
9906;SDS011;4992;51.628;6.664;2023-10-31T02:03:08;9.57;;;8.77;;
9906;SDS011;4992;51.628;6.664;2023-10-31T02:05:34;10.63;;;9.57;;
9906;SDS011;4992;51.628;6.664;2023-10-31T02:08:00;9.70;;;8.70;;
9906;SDS011;4992;51.628;6.664;2023-10-31T02:10:26;11.18;;;10.10;;
9906;SDS011;4992;51.628;6.664;2023-10-31T02:12:52;11.73;;;10.35;;
9906;SDS011;4992;51.628;6.664;2023-10-31T02:15:17;13.02;;;11.60;;
9906;SDS011;4992;51.628;6.664;2023-10-31T02:17:43;13.13;;;11.77;;
9906;SDS011;4992;51.628;6.664;2023-10-31T02:20:09;14.98;;;13.45;;
9906;SDS011;4992;51.628;6.664;2023-10-31T02:22:34;17.17;;;15.48;;
9906;SDS011;4992;51.628;6.664;2023-10-31T02:25:00;18.15;;;16.25;;
9906;SDS011;4992;51.628;6.664;2023-10-31T02:27:26;18.58;;;15.98;;
9906;SDS011;4992;51.628;6.664;2023-10-31T02:29:51;18.90;;;17.05;;
9906;SDS011;4992;51.628;6.664;2023-10-31T02:32:17;19.38;;;17.35;;
9906;SDS011;4992;51.628;6.664;2023-10-31T02:34:44;19.17;;;17.38;;
9906;SDS011;4992;51.628;6.664;2023-10-31T02:37:10;20.35;;;18.10;;
9906;SDS011;4992;51.628;6.664;2023-10-31T02:39:36;22.23;;;17.70;;
9906;SDS011;4992;51.628;6.664;2023-10-31T02:42:02;16.10;;;14.50;;
9906;SDS011;4992;51.628;6.664;2023-10-31T02:44:28;17.17;;;15.38;;
9906;SDS011;4992;51.628;6.664;2023-10-31T02:46:53;16.48;;;14.80;;
9906;SDS011;4992;51.628;6.664;2023-10-31T02:49:19;14.77;;;13.20;;
9906;SDS011;4992;51.628;6.664;2023-10-31T02:51:45;14.05;;;12.18;;
9906;SDS011;4992;51.628;6.664;2023-10-31T02:54:10;12.10;;;10.52;;
9906;SDS011;4992;51.628;6.664;2023-10-31T02:56:36;11.40;;;10.20;;
9906;SDS011;4992;51.628;6.664;2023-10-31T02:59:02;11.27;;;9.65;;
9906;SDS011;4992;51.628;6.664;2023-10-31T03:01:28;11.35;;;10.02;;
9906;SDS011;4992;51.628;6.664;2023-10-31T03:03:54;15.05;;;10.82;;
9906;SDS011;4992;51.628;6.664;2023-10-31T03:06:20;18.13;;;12.00;;
9906;SDS011;4992;51.628;6.664;2023-10-31T03:08:46;15.20;;;12.63;;
9906;SDS011;4992;51.628;6.664;2023-10-31T03:11:22;19.75;;;16.55;;
9906;SDS011;4992;51.628;6.664;2023-10-31T03:13:49;19.90;;;17.00;;
9906;SDS011;4992;51.628;6.664;2023-10-31T03:16:15;25.30;;;19.75;;
9906;SDS011;4992;51.628;6.664;2023-10-31T03:18:41;29.05;;;20.15;;
9906;SDS011;4992;51.628;6.664;2023-10-31T03:21:07;29.00;;;21.77;;
9906;SDS011;4992;51.628;6.664;2023-10-31T03:23:32;26.23;;;20.85;;
9906;SDS011;4992;51.628;6.664;2023-10-31T03:25:58;28.75;;;22.77;;
9906;SDS011;4992;51.628;6.664;2023-10-31T03:28:24;30.25;;;22.77;;
9906;SDS011;4992;51.628;6.664;2023-10-31T03:30:50;27.58;;;22.23;;
9906;SDS011;4992;51.628;6.664;2023-10-31T03:33:16;36.20;;;23.48;;
9906;SDS011;4992;51.628;6.664;2023-10-31T03:35:42;32.22;;;23.42;;
9906;SDS011;4992;51.628;6.664;2023-10-31T03:38:08;29.75;;;23.38;;
9906;SDS011;4992;51.628;6.664;2023-10-31T03:40:34;29.40;;;22.02;;
9906;SDS011;4992;51.628;6.664;2023-10-31T03:42:59;28.00;;;22.70;;
9906;SDS011;4992;51.628;6.664;2023-10-31T03:45:25;28.33;;;22.08;;
9906;SDS011;4992;51.628;6.664;2023-10-31T03:47:50;31.13;;;23.80;;
9906;SDS011;4992;51.628;6.664;2023-10-31T03:50:16;29.05;;;22.88;;
9906;SDS011;4992;51.628;6.664;2023-10-31T03:52:41;27.27;;;21.88;;
9906;SDS011;4992;51.628;6.664;2023-10-31T03:55:07;30.67;;;21.90;;
9906;SDS011;4992;51.628;6.664;2023-10-31T03:57:33;26.60;;;22.45;;
9906;SDS011;4992;51.628;6.664;2023-10-31T03:59:58;26.55;;;21.40;;
9906;SDS011;4992;51.628;6.664;2023-10-31T04:02:24;25.85;;;20.90;;
9906;SDS011;4992;51.628;6.664;2023-10-31T04:04:50;26.42;;;20.55;;
9906;SDS011;4992;51.628;6.664;2023-10-31T04:07:16;25.90;;;20.42;;
9906;SDS011;4992;51.628;6.664;2023-10-31T04:09:41;27.38;;;20.77;;
9906;SDS011;4992;51.628;6.664;2023-10-31T04:12:08;24.35;;;19.48;;
9906;SDS011;4992;51.628;6.664;2023-10-31T04:14:34;21.75;;;18.90;;
9906;SDS011;4992;51.628;6.664;2023-10-31T04:16:59;26.63;;;20.63;;
9906;SDS011;4992;51.628;6.664;2023-10-31T04:19:25;22.55;;;18.75;;
9906;SDS011;4992;51.628;6.664;2023-10-31T04:21:52;22.33;;;19.90;;
9906;SDS011;4992;51.628;6.664;2023-10-31T04:24:18;21.65;;;17.45;;
9906;SDS011;4992;51.628;6.664;2023-10-31T04:26:43;23.00;;;17.48;;
9906;SDS011;4992;51.628;6.664;2023-10-31T04:29:09;22.10;;;17.27;;
9906;SDS011;4992;51.628;6.664;2023-10-31T04:31:34;19.27;;;17.02;;
9906;SDS011;4992;51.628;6.664;2023-10-31T04:34:00;19.10;;;16.75;;
9906;SDS011;4992;51.628;6.664;2023-10-31T04:36:25;21.13;;;16.33;;
9906;SDS011;4992;51.628;6.664;2023-10-31T04:38:51;20.52;;;16.50;;
9906;SDS011;4992;51.628;6.664;2023-10-31T04:41:17;18.05;;;15.93;;
9906;SDS011;4992;51.628;6.664;2023-10-31T04:43:42;17.80;;;16.00;;
9906;SDS011;4992;51.628;6.664;2023-10-31T04:46:08;16.98;;;15.27;;
9906;SDS011;4992;51.628;6.664;2023-10-31T04:48:34;18.40;;;16.38;;
9906;SDS011;4992;51.628;6.664;2023-10-31T04:50:59;18.23;;;16.33;;
9906;SDS011;4992;51.628;6.664;2023-10-31T04:53:25;20.90;;;16.25;;
9906;SDS011;4992;51.628;6.664;2023-10-31T04:55:50;20.27;;;16.33;;
9906;SDS011;4992;51.628;6.664;2023-10-31T04:58:16;19.02;;;16.02;;
9906;SDS011;4992;51.628;6.664;2023-10-31T05:00:41;20.40;;;15.73;;
9906;SDS011;4992;51.628;6.664;2023-10-31T05:03:07;19.15;;;15.93;;
9906;SDS011;4992;51.628;6.664;2023-10-31T05:05:32;21.20;;;17.42;;
9906;SDS011;4992;51.628;6.664;2023-10-31T05:07:58;19.52;;;17.33;;
9906;SDS011;4992;51.628;6.664;2023-10-31T05:10:24;20.25;;;17.00;;
9906;SDS011;4992;51.628;6.664;2023-10-31T05:12:49;22.17;;;17.75;;
9906;SDS011;4992;51.628;6.664;2023-10-31T05:15:15;21.65;;;17.48;;
9906;SDS011;4992;51.628;6.664;2023-10-31T05:17:41;21.65;;;16.85;;
9906;SDS011;4992;51.628;6.664;2023-10-31T05:20:07;21.80;;;17.45;;
9906;SDS011;4992;51.628;6.664;2023-10-31T05:22:34;21.60;;;17.42;;
9906;SDS011;4992;51.628;6.664;2023-10-31T05:25:00;22.52;;;16.85;;
9906;SDS011;4992;51.628;6.664;2023-10-31T05:27:25;21.80;;;17.55;;
9906;SDS011;4992;51.628;6.664;2023-10-31T05:29:51;22.80;;;18.10;;
9906;SDS011;4992;51.628;6.664;2023-10-31T05:32:16;20.13;;;17.45;;
9906;SDS011;4992;51.628;6.664;2023-10-31T05:34:42;28.50;;;19.05;;
9906;SDS011;4992;51.628;6.664;2023-10-31T05:37:07;22.90;;;18.20;;
9906;SDS011;4992;51.628;6.664;2023-10-31T05:39:33;24.23;;;18.98;;
9906;SDS011;4992;51.628;6.664;2023-10-31T05:42:01;22.70;;;17.98;;
9906;SDS011;4992;51.628;6.664;2023-10-31T05:44:27;26.85;;;20.95;;
9906;SDS011;4992;51.628;6.664;2023-10-31T05:46:53;22.10;;;19.70;;
9906;SDS011;4992;51.628;6.664;2023-10-31T05:49:19;26.88;;;21.63;;
9906;SDS011;4992;51.628;6.664;2023-10-31T05:51:44;29.40;;;23.30;;
9906;SDS011;4992;51.628;6.664;2023-10-31T05:54:14;27.55;;;22.33;;
9906;SDS011;4992;51.628;6.664;2023-10-31T05:56:40;27.42;;;21.67;;
9906;SDS011;4992;51.628;6.664;2023-10-31T05:59:05;26.35;;;23.02;;
9906;SDS011;4992;51.628;6.664;2023-10-31T06:01:31;31.15;;;24.17;;
9906;SDS011;4992;51.628;6.664;2023-10-31T06:03:57;29.20;;;24.10;;
9906;SDS011;4992;51.628;6.664;2023-10-31T06:06:22;31.75;;;24.20;;
9906;SDS011;4992;51.628;6.664;2023-10-31T06:08:48;29.33;;;23.65;;
9906;SDS011;4992;51.628;6.664;2023-10-31T06:11:13;31.70;;;24.17;;
9906;SDS011;4992;51.628;6.664;2023-10-31T06:13:40;30.55;;;24.67;;
9906;SDS011;4992;51.628;6.664;2023-10-31T06:16:06;31.98;;;25.77;;
9906;SDS011;4992;51.628;6.664;2023-10-31T06:18:32;31.83;;;25.48;;
9906;SDS011;4992;51.628;6.664;2023-10-31T06:20:58;31.42;;;24.67;;
9906;SDS011;4992;51.628;6.664;2023-10-31T06:23:24;34.05;;;27.58;;
9906;SDS011;4992;51.628;6.664;2023-10-31T06:25:49;30.92;;;24.17;;
9906;SDS011;4992;51.628;6.664;2023-10-31T06:28:15;31.50;;;24.83;;
9906;SDS011;4992;51.628;6.664;2023-10-31T06:30:40;34.13;;;26.20;;
9906;SDS011;4992;51.628;6.664;2023-10-31T06:33:06;33.97;;;25.23;;
9906;SDS011;4992;51.628;6.664;2023-10-31T06:35:35;34.08;;;26.02;;
9906;SDS011;4992;51.628;6.664;2023-10-31T06:38:01;31.42;;;25.17;;
9906;SDS011;4992;51.628;6.664;2023-10-31T06:40:27;33.90;;;25.05;;
9906;SDS011;4992;51.628;6.664;2023-10-31T06:42:53;30.77;;;24.83;;
9906;SDS011;4992;51.628;6.664;2023-10-31T06:45:18;30.15;;;23.95;;
9906;SDS011;4992;51.628;6.664;2023-10-31T06:47:44;34.45;;;23.70;;
9906;SDS011;4992;51.628;6.664;2023-10-31T06:50:09;29.08;;;23.92;;
9906;SDS011;4992;51.628;6.664;2023-10-31T06:52:35;33.08;;;24.70;;
9906;SDS011;4992;51.628;6.664;2023-10-31T06:55:01;28.50;;;23.33;;
9906;SDS011;4992;51.628;6.664;2023-10-31T06:57:26;28.77;;;22.85;;
9906;SDS011;4992;51.628;6.664;2023-10-31T06:59:52;25.92;;;21.85;;
9906;SDS011;4992;51.628;6.664;2023-10-31T07:02:18;27.05;;;21.25;;
9906;SDS011;4992;51.628;6.664;2023-10-31T07:04:44;22.98;;;19.77;;
9906;SDS011;4992;51.628;6.664;2023-10-31T07:07:09;26.23;;;20.70;;
9906;SDS011;4992;51.628;6.664;2023-10-31T07:09:35;25.25;;;19.42;;
9906;SDS011;4992;51.628;6.664;2023-10-31T07:12:00;22.45;;;20.05;;
9906;SDS011;4992;51.628;6.664;2023-10-31T07:14:26;22.33;;;18.58;;
9906;SDS011;4992;51.628;6.664;2023-10-31T07:16:51;19.60;;;17.35;;
9906;SDS011;4992;51.628;6.664;2023-10-31T07:19:17;19.60;;;16.38;;
9906;SDS011;4992;51.628;6.664;2023-10-31T07:21:42;18.20;;;16.08;;
9906;SDS011;4992;51.628;6.664;2023-10-31T07:24:08;17.60;;;15.82;;
9906;SDS011;4992;51.628;6.664;2023-10-31T07:26:36;17.77;;;15.95;;
9906;SDS011;4992;51.628;6.664;2023-10-31T07:29:02;17.55;;;15.65;;
9906;SDS011;4992;51.628;6.664;2023-10-31T07:31:28;17.38;;;15.68;;
9906;SDS011;4992;51.628;6.664;2023-10-31T07:33:53;15.95;;;14.40;;
9906;SDS011;4992;51.628;6.664;2023-10-31T07:36:19;16.25;;;14.55;;
9906;SDS011;4992;51.628;6.664;2023-10-31T07:38:44;15.70;;;14.20;;
9906;SDS011;4992;51.628;6.664;2023-10-31T07:41:10;16.10;;;13.60;;
9906;SDS011;4992;51.628;6.664;2023-10-31T07:43:35;15.02;;;13.63;;
9906;SDS011;4992;51.628;6.664;2023-10-31T07:46:01;16.05;;;14.35;;
9906;SDS011;4992;51.628;6.664;2023-10-31T07:48:27;14.73;;;13.32;;
9906;SDS011;4992;51.628;6.664;2023-10-31T07:50:52;14.73;;;13.32;;
9906;SDS011;4992;51.628;6.664;2023-10-31T07:53:18;15.70;;;13.88;;
9906;SDS011;4992;51.628;6.664;2023-10-31T07:55:43;15.95;;;14.25;;
9906;SDS011;4992;51.628;6.664;2023-10-31T07:58:09;16.38;;;14.75;;
9906;SDS011;4992;51.628;6.664;2023-10-31T08:00:35;15.32;;;13.82;;
9906;SDS011;4992;51.628;6.664;2023-10-31T08:03:01;15.35;;;13.85;;
9906;SDS011;4992;51.628;6.664;2023-10-31T08:05:27;15.75;;;14.25;;
9906;SDS011;4992;51.628;6.664;2023-10-31T08:07:52;14.75;;;13.43;;
9906;SDS011;4992;51.628;6.664;2023-10-31T08:10:18;16.05;;;14.38;;
9906;SDS011;4992;51.628;6.664;2023-10-31T08:12:43;15.52;;;13.57;;
9906;SDS011;4992;51.628;6.664;2023-10-31T08:15:09;15.63;;;14.02;;
9906;SDS011;4992;51.628;6.664;2023-10-31T08:17:35;13.35;;;12.05;;
9906;SDS011;4992;51.628;6.664;2023-10-31T08:20:01;14.23;;;12.70;;
9906;SDS011;4992;51.628;6.664;2023-10-31T08:22:28;13.88;;;12.57;;
9906;SDS011;4992;51.628;6.664;2023-10-31T08:24:54;12.95;;;11.60;;
9906;SDS011;4992;51.628;6.664;2023-10-31T08:27:19;12.48;;;11.38;;
9906;SDS011;4992;51.628;6.664;2023-10-31T08:29:45;12.65;;;11.43;;
9906;SDS011;4992;51.628;6.664;2023-10-31T08:32:11;12.38;;;11.23;;
9906;SDS011;4992;51.628;6.664;2023-10-31T08:34:36;12.52;;;11.43;;
9906;SDS011;4992;51.628;6.664;2023-10-31T08:37:02;13.38;;;12.18;;
9906;SDS011;4992;51.628;6.664;2023-10-31T08:39:28;12.55;;;11.55;;
9906;SDS011;4992;51.628;6.664;2023-10-31T08:41:54;12.88;;;11.68;;
9906;SDS011;4992;51.628;6.664;2023-10-31T08:44:21;13.27;;;12.05;;
9906;SDS011;4992;51.628;6.664;2023-10-31T08:46:47;13.98;;;12.63;;
9906;SDS011;4992;51.628;6.664;2023-10-31T08:49:13;14.23;;;13.02;;
9906;SDS011;4992;51.628;6.664;2023-10-31T08:51:40;13.57;;;12.30;;
9906;SDS011;4992;51.628;6.664;2023-10-31T08:54:06;13.90;;;12.70;;
9906;SDS011;4992;51.628;6.664;2023-10-31T08:56:31;13.57;;;12.25;;
9906;SDS011;4992;51.628;6.664;2023-10-31T08:58:57;14.60;;;13.30;;
9906;SDS011;4992;51.628;6.664;2023-10-31T09:01:22;14.05;;;12.73;;
9906;SDS011;4992;51.628;6.664;2023-10-31T09:03:48;14.00;;;12.70;;
9906;SDS011;4992;51.628;6.664;2023-10-31T09:06:14;11.90;;;10.90;;
9906;SDS011;4992;51.628;6.664;2023-10-31T09:08:40;12.88;;;11.55;;
9906;SDS011;4992;51.628;6.664;2023-10-31T09:11:05;12.15;;;11.05;;
9906;SDS011;4992;51.628;6.664;2023-10-31T09:13:31;13.35;;;11.77;;
9906;SDS011;4992;51.628;6.664;2023-10-31T09:15:58;11.80;;;10.70;;
9906;SDS011;4992;51.628;6.664;2023-10-31T09:18:24;11.07;;;10.07;;
9906;SDS011;4992;51.628;6.664;2023-10-31T09:20:50;11.32;;;10.25;;
9906;SDS011;4992;51.628;6.664;2023-10-31T09:23:15;10.98;;;10.07;;
9906;SDS011;4992;51.628;6.664;2023-10-31T09:25:42;10.38;;;9.57;;
9906;SDS011;4992;51.628;6.664;2023-10-31T09:28:08;13.23;;;10.43;;
9906;SDS011;4992;51.628;6.664;2023-10-31T09:30:34;10.27;;;9.48;;
9906;SDS011;4992;51.628;6.664;2023-10-31T09:32:59;10.15;;;9.25;;
9906;SDS011;4992;51.628;6.664;2023-10-31T09:35:25;9.85;;;8.95;;
9906;SDS011;4992;51.628;6.664;2023-10-31T09:37:51;10.48;;;9.45;;
9906;SDS011;4992;51.628;6.664;2023-10-31T09:40:17;9.88;;;9.05;;
9906;SDS011;4992;51.628;6.664;2023-10-31T09:42:43;10.52;;;9.43;;
9906;SDS011;4992;51.628;6.664;2023-10-31T09:45:10;11.55;;;10.48;;
9906;SDS011;4992;51.628;6.664;2023-10-31T09:47:36;10.60;;;9.60;;
9906;SDS011;4992;51.628;6.664;2023-10-31T09:50:02;9.35;;;8.55;;
9906;SDS011;4992;51.628;6.664;2023-10-31T09:52:28;10.27;;;8.77;;
9906;SDS011;4992;51.628;6.664;2023-10-31T09:54:54;9.07;;;8.13;;
9906;SDS011;4992;51.628;6.664;2023-10-31T09:57:21;9.63;;;8.73;;
9906;SDS011;4992;51.628;6.664;2023-10-31T09:59:46;10.35;;;9.07;;
9906;SDS011;4992;51.628;6.664;2023-10-31T10:02:12;9.82;;;8.88;;
9906;SDS011;4992;51.628;6.664;2023-10-31T10:04:37;10.65;;;9.60;;
9906;SDS011;4992;51.628;6.664;2023-10-31T10:07:03;10.23;;;9.23;;
9906;SDS011;4992;51.628;6.664;2023-10-31T10:09:29;11.88;;;10.52;;
9906;SDS011;4992;51.628;6.664;2023-10-31T10:11:58;13.68;;;10.82;;
9906;SDS011;4992;51.628;6.664;2023-10-31T10:14:25;11.25;;;10.13;;
9906;SDS011;4992;51.628;6.664;2023-10-31T10:16:53;11.63;;;10.43;;
9906;SDS011;4992;51.628;6.664;2023-10-31T10:19:23;11.82;;;10.80;;
9906;SDS011;4992;51.628;6.664;2023-10-31T10:21:49;12.57;;;11.27;;
9906;SDS011;4992;51.628;6.664;2023-10-31T10:24:20;13.55;;;12.30;;
9906;SDS011;4992;51.628;6.664;2023-10-31T10:26:46;15.57;;;13.40;;
9906;SDS011;4992;51.628;6.664;2023-10-31T10:29:13;14.10;;;12.63;;
9906;SDS011;4992;51.628;6.664;2023-10-31T10:31:40;13.30;;;12.00;;
9906;SDS011;4992;51.628;6.664;2023-10-31T10:34:06;13.35;;;12.13;;
9906;SDS011;4992;51.628;6.664;2023-10-31T10:36:32;13.88;;;11.63;;
9906;SDS011;4992;51.628;6.664;2023-10-31T10:38:58;11.98;;;10.85;;
9906;SDS011;4992;51.628;6.664;2023-10-31T10:41:25;12.00;;;10.70;;
9906;SDS011;4992;51.628;6.664;2023-10-31T10:44:03;14.10;;;10.82;;
9906;SDS011;4992;51.628;6.664;2023-10-31T10:46:32;13.55;;;11.65;;
9906;SDS011;4992;51.628;6.664;2023-10-31T10:48:59;14.45;;;11.80;;
9906;SDS011;4992;51.628;6.664;2023-10-31T10:51:28;13.35;;;11.55;;
9906;SDS011;4992;51.628;6.664;2023-10-31T10:54:05;13.45;;;10.95;;
9906;SDS011;4992;51.628;6.664;2023-10-31T10:56:39;12.45;;;11.25;;
9906;SDS011;4992;51.628;6.664;2023-10-31T10:59:14;13.45;;;11.35;;
9906;SDS011;4992;51.628;6.664;2023-10-31T11:01:43;13.07;;;11.77;;
9906;SDS011;4992;51.628;6.664;2023-10-31T11:04:12;14.20;;;11.65;;
9906;SDS011;4992;51.628;6.664;2023-10-31T11:06:38;12.98;;;10.55;;
9906;SDS011;4992;51.628;6.664;2023-10-31T11:09:05;12.27;;;10.48;;
9906;SDS011;4992;51.628;6.664;2023-10-31T11:11:31;12.77;;;10.90;;
9906;SDS011;4992;51.628;6.664;2023-10-31T11:13:57;13.25;;;10.52;;
9906;SDS011;4992;51.628;6.664;2023-10-31T11:16:26;12.82;;;10.90;;
9906;SDS011;4992;51.628;6.664;2023-10-31T11:18:57;12.23;;;9.88;;
9906;SDS011;4992;51.628;6.664;2023-10-31T11:21:23;11.25;;;9.55;;
9906;SDS011;4992;51.628;6.664;2023-10-31T11:23:58;12.13;;;9.68;;
9906;SDS011;4992;51.628;6.664;2023-10-31T11:26:29;10.35;;;9.27;;
9906;SDS011;4992;51.628;6.664;2023-10-31T11:29:05;9.77;;;8.77;;
9906;SDS011;4992;51.628;6.664;2023-10-31T11:31:31;11.95;;;9.63;;
9906;SDS011;4992;51.628;6.664;2023-10-31T11:33:58;9.73;;;8.80;;
9906;SDS011;4992;51.628;6.664;2023-10-31T11:36:26;9.73;;;8.20;;
9906;SDS011;4992;51.628;6.664;2023-10-31T11:39:09;10.13;;;8.25;;
9906;SDS011;4992;51.628;6.664;2023-10-31T11:41:40;10.20;;;8.43;;
9906;SDS011;4992;51.628;6.664;2023-10-31T11:44:10;11.95;;;8.18;;
9906;SDS011;4992;51.628;6.664;2023-10-31T11:46:35;8.88;;;7.97;;
9906;SDS011;4992;51.628;6.664;2023-10-31T11:49:01;9.82;;;7.68;;
9906;SDS011;4992;51.628;6.664;2023-10-31T11:51:29;9.50;;;7.22;;
9906;SDS011;4992;51.628;6.664;2023-10-31T11:53:55;11.02;;;7.28;;
9906;SDS011;4992;51.628;6.664;2023-10-31T11:56:21;9.98;;;6.57;;
9906;SDS011;4992;51.628;6.664;2023-10-31T12:01:29;7.38;;;6.20;;
9906;SDS011;4992;51.628;6.664;2023-10-31T12:03:54;12.52;;;6.35;;
9906;SDS011;4992;51.628;6.664;2023-10-31T12:06:20;7.20;;;5.60;;
9906;SDS011;4992;51.628;6.664;2023-10-31T12:08:46;10.63;;;6.00;;
9906;SDS011;4992;51.628;6.664;2023-10-31T12:11:17;8.60;;;5.88;;
9906;SDS011;4992;51.628;6.664;2023-10-31T12:16:24;6.75;;;5.80;;
9906;SDS011;4992;51.628;6.664;2023-10-31T12:18:55;10.50;;;5.57;;
9906;SDS011;4992;51.628;6.664;2023-10-31T12:21:35;5.57;;;5.03;;
9906;SDS011;4992;51.628;6.664;2023-10-31T12:24:06;7.72;;;5.97;;
9906;SDS011;4992;51.628;6.664;2023-10-31T12:26:33;6.70;;;4.70;;
9906;SDS011;4992;51.628;6.664;2023-10-31T12:29:13;12.30;;;5.28;;
9906;SDS011;4992;51.628;6.664;2023-10-31T12:31:43;7.72;;;4.90;;
9906;SDS011;4992;51.628;6.664;2023-10-31T12:34:10;5.20;;;3.95;;
9906;SDS011;4992;51.628;6.664;2023-10-31T12:36:36;6.43;;;4.55;;
9906;SDS011;4992;51.628;6.664;2023-10-31T12:39:04;5.07;;;4.47;;
9906;SDS011;4992;51.628;6.664;2023-10-31T12:41:32;6.07;;;4.38;;
9906;SDS011;4992;51.628;6.664;2023-10-31T12:43:58;6.88;;;4.45;;
9906;SDS011;4992;51.628;6.664;2023-10-31T12:46:24;9.30;;;4.15;;
9906;SDS011;4992;51.628;6.664;2023-10-31T12:48:57;5.88;;;3.67;;
9906;SDS011;4992;51.628;6.664;2023-10-31T12:51:23;9.13;;;4.25;;
9906;SDS011;4992;51.628;6.664;2023-10-31T12:53:49;7.03;;;4.10;;
9906;SDS011;4992;51.628;6.664;2023-10-31T12:58:59;6.20;;;3.85;;
9906;SDS011;4992;51.628;6.664;2023-10-31T13:01:25;5.75;;;3.90;;
9906;SDS011;4992;51.628;6.664;2023-10-31T13:03:51;5.28;;;3.50;;
9906;SDS011;4992;51.628;6.664;2023-10-31T13:06:17;4.65;;;3.10;;
9906;SDS011;4992;51.628;6.664;2023-10-31T13:08:45;7.55;;;3.03;;
9906;SDS011;4992;51.628;6.664;2023-10-31T13:11:11;7.85;;;2.78;;
9906;SDS011;4992;51.628;6.664;2023-10-31T13:13:38;6.40;;;3.00;;
9906;SDS011;4992;51.628;6.664;2023-10-31T13:16:04;6.40;;;3.00;;
9906;SDS011;4992;51.628;6.664;2023-10-31T13:18:30;6.45;;;2.60;;
9906;SDS011;4992;51.628;6.664;2023-10-31T13:20:55;4.05;;;2.15;;
9906;SDS011;4992;51.628;6.664;2023-10-31T13:23:21;3.50;;;2.05;;
9906;SDS011;4992;51.628;6.664;2023-10-31T13:25:46;3.72;;;2.13;;
9906;SDS011;4992;51.628;6.664;2023-10-31T13:28:12;5.03;;;1.70;;
9906;SDS011;4992;51.628;6.664;2023-10-31T13:30:39;2.60;;;1.90;;
9906;SDS011;4992;51.628;6.664;2023-10-31T13:33:05;3.75;;;2.17;;
9906;SDS011;4992;51.628;6.664;2023-10-31T13:35:32;3.13;;;2.03;;
9906;SDS011;4992;51.628;6.664;2023-10-31T13:37:59;4.07;;;2.20;;
9906;SDS011;4992;51.628;6.664;2023-10-31T13:40:25;4.53;;;1.95;;
9906;SDS011;4992;51.628;6.664;2023-10-31T13:42:51;3.13;;;1.75;;
9906;SDS011;4992;51.628;6.664;2023-10-31T13:45:16;5.43;;;1.92;;
9906;SDS011;4992;51.628;6.664;2023-10-31T13:47:42;2.95;;;1.52;;
9906;SDS011;4992;51.628;6.664;2023-10-31T13:50:07;7.05;;;1.60;;
9906;SDS011;4992;51.628;6.664;2023-10-31T13:52:33;5.60;;;1.58;;
9906;SDS011;4992;51.628;6.664;2023-10-31T13:54:59;4.78;;;1.65;;
9906;SDS011;4992;51.628;6.664;2023-10-31T13:57:24;3.10;;;1.33;;
9906;SDS011;4992;51.628;6.664;2023-10-31T13:59:50;2.30;;;1.30;;
9906;SDS011;4992;51.628;6.664;2023-10-31T14:02:16;5.30;;;1.60;;
9906;SDS011;4992;51.628;6.664;2023-10-31T14:04:42;2.83;;;1.33;;
9906;SDS011;4992;51.628;6.664;2023-10-31T14:07:07;3.00;;;1.50;;
9906;SDS011;4992;51.628;6.664;2023-10-31T14:09:33;1.52;;;1.10;;
9906;SDS011;4992;51.628;6.664;2023-10-31T14:11:59;2.75;;;1.33;;
9906;SDS011;4992;51.628;6.664;2023-10-31T14:14:24;1.63;;;1.10;;
9906;SDS011;4992;51.628;6.664;2023-10-31T14:16:50;2.45;;;1.13;;
9906;SDS011;4992;51.628;6.664;2023-10-31T14:19:15;3.67;;;1.30;;
9906;SDS011;4992;51.628;6.664;2023-10-31T14:21:41;2.05;;;1.10;;
9906;SDS011;4992;51.628;6.664;2023-10-31T14:24:07;1.85;;;1.23;;
9906;SDS011;4992;51.628;6.664;2023-10-31T14:26:33;2.28;;;1.10;;
9906;SDS011;4992;51.628;6.664;2023-10-31T14:28:59;2.17;;;1.30;;
9906;SDS011;4992;51.628;6.664;2023-10-31T14:31:25;1.55;;;0.93;;
9906;SDS011;4992;51.628;6.664;2023-10-31T14:33:51;3.10;;;1.25;;
9906;SDS011;4992;51.628;6.664;2023-10-31T14:36:16;1.65;;;0.85;;
9906;SDS011;4992;51.628;6.664;2023-10-31T14:38:42;3.70;;;1.13;;
9906;SDS011;4992;51.628;6.664;2023-10-31T14:41:08;2.80;;;1.20;;
9906;SDS011;4992;51.628;6.664;2023-10-31T14:43:34;4.00;;;0.90;;
9906;SDS011;4992;51.628;6.664;2023-10-31T14:46:00;2.70;;;1.20;;
9906;SDS011;4992;51.628;6.664;2023-10-31T14:48:27;2.53;;;1.33;;
9906;SDS011;4992;51.628;6.664;2023-10-31T14:50:53;1.38;;;0.88;;
9906;SDS011;4992;51.628;6.664;2023-10-31T14:53:19;1.85;;;0.88;;
9906;SDS011;4992;51.628;6.664;2023-10-31T14:55:45;1.80;;;1.10;;
9906;SDS011;4992;51.628;6.664;2023-10-31T14:58:11;3.40;;;0.80;;
9906;SDS011;4992;51.628;6.664;2023-10-31T15:00:37;1.63;;;0.80;;